createdAt,value
2018-10-20T00:00:00.000Z,99519
2018-10-20T00:05:00.000Z,99520
2018-10-20T00:10:00.000Z,99524
2018-10-20T00:15:00.000Z,99520
2018-10-20T00:20:00.000Z,99520
2018-10-20T00:25:00.000Z,99523
2018-10-20T00:30:00.000Z,99522
2018-10-20T00:35:00.000Z,99526
2018-10-20T00:40:00.000Z,99530
2018-10-20T00:45:00.000Z,99508
2018-10-20T00:50:00.000Z,99520
2018-10-20T00:55:00.000Z,99518
2018-10-20T01:00:00.000Z,99512
2018-10-20T01:05:00.000Z,99510
2018-10-20T01:10:00.000Z,99506
2018-10-20T01:15:00.000Z,99492
2018-10-20T01:20:00.000Z,99503
2018-10-20T01:25:00.000Z,99498
2018-10-20T01:30:00.000Z,99493
2018-10-20T01:35:00.000Z,99498
2018-10-20T01:40:00.000Z,99494
2018-10-20T01:45:00.000Z,99510
2018-10-20T01:50:00.000Z,99504
2018-10-20T01:55:00.000Z,99521
2018-10-20T02:00:00.000Z,99507
2018-10-20T02:05:00.000Z,99508
2018-10-20T02:10:00.000Z,99518
2018-10-20T02:15:00.000Z,99508
2018-10-20T02:20:00.000Z,99503
2018-10-20T02:25:00.000Z,99510
2018-10-20T02:30:00.000Z,99509
2018-10-20T02:35:00.000Z,99502
2018-10-20T02:40:00.000Z,99518
2018-10-20T02:45:00.000Z,99518
2018-10-20T02:50:00.000Z,99532
2018-10-20T02:55:00.000Z,99530
2018-10-20T03:00:00.000Z,99537
2018-10-20T03:05:00.000Z,99535
2018-10-20T03:10:00.000Z,99540
2018-10-20T03:15:00.000Z,99545
2018-10-20T03:20:00.000Z,99553
2018-10-20T03:25:00.000Z,99557
2018-10-20T03:30:00.000Z,99559
2018-10-20T03:35:00.000Z,99566
2018-10-20T03:40:00.000Z,99566
2018-10-20T03:45:00.000Z,99566
2018-10-20T03:50:00.000Z,99566
2018-10-20T03:55:00.000Z,99565
2018-10-20T04:00:00.000Z,99563
2018-10-20T04:05:00.000Z,99561
2018-10-20T04:10:00.000Z,99562
2018-10-20T04:15:00.000Z,99554
2018-10-20T04:20:00.000Z,99558
2018-10-20T04:25:00.000Z,99556
2018-10-20T04:30:00.000Z,99562
2018-10-20T04:35:00.000Z,99568
2018-10-20T04:40:00.000Z,99571
2018-10-20T04:45:00.000Z,99573
2018-10-20T04:50:00.000Z,99585
2018-10-20T04:55:00.000Z,99597
2018-10-20T05:00:00.000Z,99597
2018-10-20T05:05:00.000Z,99589
2018-10-20T05:10:00.000Z,99590
2018-10-20T05:16:00.000Z,99598
2018-10-20T05:21:00.000Z,99600
2018-10-20T05:26:00.000Z,99607
2018-10-20T05:31:00.000Z,99601
2018-10-20T05:36:00.000Z,99605
2018-10-20T05:41:00.000Z,99625
2018-10-20T05:46:00.000Z,99634
2018-10-20T05:51:00.000Z,99621
2018-10-20T05:56:00.000Z,99639
2018-10-20T06:01:00.000Z,99638
2018-10-20T06:06:00.000Z,99630
2018-10-20T06:11:00.000Z,99648
2018-10-20T06:16:00.000Z,99639
2018-10-20T06:21:00.000Z,99651
2018-10-20T06:26:00.000Z,99647
2018-10-20T06:31:00.000Z,99646
2018-10-20T06:36:00.000Z,99646
2018-10-20T06:41:00.000Z,99654
2018-10-20T06:46:00.000Z,99658
2018-10-20T06:51:00.000Z,99672
2018-10-20T06:56:00.000Z,99668
2018-10-20T07:01:00.000Z,99680
2018-10-20T07:06:00.000Z,99689
2018-10-20T07:11:00.000Z,99708
2018-10-20T07:16:00.000Z,99708
2018-10-20T07:21:00.000Z,99705
2018-10-20T07:26:00.000Z,99709
2018-10-20T07:31:00.000Z,99713
2018-10-20T07:36:00.000Z,99713
2018-10-20T07:41:00.000Z,99720
2018-10-20T07:46:00.000Z,99723
2018-10-20T07:51:00.000Z,99721
2018-10-20T07:56:00.000Z,99729
2018-10-20T08:01:00.000Z,99727
2018-10-20T08:06:00.000Z,99725
2018-10-20T08:11:00.000Z,99737
2018-10-20T08:16:00.000Z,99743
2018-10-20T08:21:00.000Z,99732
2018-10-20T08:26:00.000Z,99732
2018-10-20T08:31:00.000Z,99727
2018-10-20T08:36:00.000Z,99726
2018-10-20T08:41:00.000Z,99736
2018-10-20T08:46:00.000Z,99724
2018-10-20T08:51:00.000Z,99725
2018-10-20T08:56:00.000Z,99722
2018-10-20T09:01:00.000Z,99732
2018-10-20T09:06:00.000Z,99727
2018-10-20T09:11:00.000Z,99723
2018-10-20T09:16:00.000Z,99719
2018-10-20T09:21:00.000Z,99732
2018-10-20T09:26:00.000Z,99730
2018-10-20T09:31:00.000Z,99718
2018-10-20T09:36:00.000Z,99734
2018-10-20T09:41:00.000Z,99728
2018-10-20T09:46:00.000Z,99732
2018-10-20T09:51:00.000Z,99733
2018-10-20T09:56:00.000Z,99728
2018-10-20T10:01:00.000Z,99727
2018-10-20T10:06:00.000Z,99722
2018-10-20T10:11:00.000Z,99722
2018-10-20T10:16:00.000Z,99723
2018-10-20T10:21:00.000Z,99718
2018-10-20T10:26:00.000Z,99721
2018-10-20T10:31:00.000Z,99707
2018-10-20T10:36:00.000Z,99703
2018-10-20T10:41:00.000Z,99705
2018-10-20T10:46:00.000Z,99698
2018-10-20T10:51:00.000Z,99704
2018-10-20T10:56:00.000Z,99694
2018-10-20T11:01:00.000Z,99694
2018-10-20T11:06:00.000Z,99686
2018-10-20T11:12:00.000Z,99682
2018-10-20T11:17:00.000Z,99681
2018-10-20T11:22:00.000Z,99676
2018-10-20T11:27:00.000Z,99667
2018-10-20T11:32:00.000Z,99672
2018-10-20T11:37:00.000Z,99666
2018-10-20T11:42:00.000Z,99664
2018-10-20T11:47:00.000Z,99669
2018-10-20T11:52:00.000Z,99663
2018-10-20T11:57:00.000Z,99673
2018-10-20T12:02:00.000Z,99662
2018-10-20T12:07:00.000Z,99660
2018-10-20T12:12:00.000Z,99659
2018-10-20T12:17:00.000Z,99649
2018-10-20T12:22:00.000Z,99639
2018-10-20T12:27:00.000Z,99642
2018-10-20T12:32:00.000Z,99622
2018-10-20T12:37:00.000Z,99625
2018-10-20T12:42:00.000Z,99626
2018-10-20T12:47:00.000Z,99618
2018-10-20T12:52:00.000Z,99622
2018-10-20T12:57:00.000Z,99619
2018-10-20T13:02:00.000Z,99623
2018-10-20T13:07:00.000Z,99619
2018-10-20T13:12:00.000Z,99625
2018-10-20T13:17:00.000Z,99616
2018-10-20T13:22:00.000Z,99612
2018-10-20T13:27:00.000Z,99611
2018-10-20T13:32:00.000Z,99616
2018-10-20T13:37:00.000Z,99603
2018-10-20T13:42:00.000Z,99600
2018-10-20T13:47:00.000Z,99615
2018-10-20T13:52:00.000Z,99601
2018-10-20T13:57:00.000Z,99586
2018-10-20T14:02:00.000Z,99601
2018-10-20T14:07:00.000Z,99590
2018-10-20T14:12:00.000Z,99591
2018-10-20T14:17:00.000Z,99588
2018-10-20T14:22:00.000Z,99581
2018-10-20T14:27:00.000Z,99585
2018-10-20T14:32:00.000Z,99579
2018-10-20T14:37:00.000Z,99577
2018-10-20T14:42:00.000Z,99577
2018-10-20T14:47:00.000Z,99568
2018-10-20T14:52:00.000Z,99579
2018-10-20T14:57:00.000Z,99581
2018-10-20T15:02:00.000Z,99575
2018-10-20T15:07:00.000Z,99570
2018-10-20T15:12:00.000Z,99569
2018-10-20T15:17:00.000Z,99581
2018-10-20T15:22:00.000Z,99584
2018-10-20T15:27:00.000Z,99589
2018-10-20T15:32:00.000Z,99589
2018-10-20T15:37:00.000Z,99594
2018-10-20T15:42:00.000Z,99588
2018-10-20T15:47:00.000Z,99597
2018-10-20T15:52:00.000Z,99593
2018-10-20T15:57:00.000Z,99592
2018-10-20T16:02:00.000Z,99594
2018-10-20T16:07:00.000Z,99605
2018-10-20T16:12:00.000Z,99603
2018-10-20T16:17:00.000Z,99605
2018-10-20T16:22:00.000Z,99613
2018-10-20T16:27:00.000Z,99615
2018-10-20T16:32:00.000Z,99613
2018-10-20T16:38:00.000Z,99620
2018-10-20T16:43:00.000Z,99614
2018-10-20T16:48:00.000Z,99621
2018-10-20T16:53:00.000Z,99622
2018-10-20T16:58:00.000Z,99619
2018-10-20T17:03:00.000Z,99627
2018-10-20T17:08:00.000Z,99622
2018-10-20T17:13:00.000Z,99629
2018-10-20T17:18:00.000Z,99635
2018-10-20T17:23:00.000Z,99631
2018-10-20T17:28:00.000Z,99637
2018-10-20T17:33:00.000Z,99639
2018-10-20T17:38:00.000Z,99642
2018-10-20T17:43:00.000Z,99634
2018-10-20T17:48:00.000Z,99628
2018-10-20T17:53:00.000Z,99621
2018-10-20T17:58:00.000Z,99628
2018-10-20T18:03:00.000Z,99635
2018-10-20T18:08:00.000Z,99646
2018-10-20T18:13:00.000Z,99635
2018-10-20T18:18:00.000Z,99644
2018-10-20T18:23:00.000Z,99649
2018-10-20T18:28:00.000Z,99641
2018-10-20T18:33:00.000Z,99658
2018-10-20T18:38:00.000Z,99660
2018-10-20T18:43:00.000Z,99661
2018-10-20T18:48:00.000Z,99667
2018-10-20T18:53:00.000Z,99673
2018-10-20T18:58:00.000Z,99685
2018-10-20T19:03:00.000Z,99698
2018-10-20T19:08:00.000Z,99702
2018-10-20T19:13:00.000Z,99698
2018-10-20T19:18:00.000Z,99694
2018-10-20T19:23:00.000Z,99695
2018-10-20T19:28:00.000Z,99697
2018-10-20T19:33:00.000Z,99696
2018-10-20T19:38:00.000Z,99699
2018-10-20T19:43:00.000Z,99712
2018-10-20T19:48:00.000Z,99695
2018-10-20T19:53:00.000Z,99713
2018-10-20T19:58:00.000Z,99698
2018-10-20T20:03:00.000Z,99699
2018-10-20T20:08:00.000Z,99696
2018-10-20T20:13:00.000Z,99705
2018-10-20T20:18:00.000Z,99708
2018-10-20T20:23:00.000Z,99710
2018-10-20T20:28:00.000Z,99706
2018-10-20T20:33:00.000Z,99708
2018-10-20T20:38:00.000Z,99720
2018-10-20T20:43:00.000Z,99714
2018-10-20T20:48:00.000Z,99723
2018-10-20T20:53:00.000Z,99719
2018-10-20T20:58:00.000Z,99732
2018-10-20T21:03:00.000Z,99735
2018-10-20T21:08:00.000Z,99733
2018-10-20T21:13:00.000Z,99718
2018-10-20T21:18:00.000Z,99725
2018-10-20T21:23:00.000Z,99723
2018-10-20T21:28:00.000Z,99723
2018-10-20T21:33:00.000Z,99715
2018-10-20T21:38:00.000Z,99716
2018-10-20T21:43:00.000Z,99724
2018-10-20T21:48:00.000Z,99732
2018-10-20T21:53:00.000Z,99732
2018-10-20T21:59:00.000Z,99733
2018-10-20T22:04:00.000Z,99720
2018-10-20T22:09:00.000Z,99723
2018-10-20T22:14:00.000Z,99729
2018-10-20T22:19:00.000Z,99716
2018-10-20T22:24:00.000Z,99725
2018-10-20T22:29:00.000Z,99730
2018-10-20T22:34:00.000Z,99729
2018-10-20T22:39:00.000Z,99733
2018-10-20T22:44:00.000Z,99721
2018-10-20T22:49:00.000Z,99716
2018-10-20T22:54:00.000Z,99719
2018-10-20T22:59:00.000Z,99707
2018-10-20T23:04:00.000Z,99710
2018-10-20T23:09:00.000Z,99716
2018-10-20T23:14:00.000Z,99704
2018-10-20T23:19:00.000Z,99707
2018-10-20T23:24:00.000Z,99713
2018-10-20T23:29:00.000Z,99694
2018-10-20T23:34:00.000Z,99703
2018-10-20T23:39:00.000Z,99700
2018-10-20T23:44:00.000Z,99701
2018-10-20T23:49:00.000Z,99715
2018-10-20T23:54:00.000Z,99710
2018-10-20T23:59:00.000Z,99711
